Time;durP1;ratioP1;P1;durP2;ratioP2;P2;SDS_P1;SDS_P2;PMS_P1;PMS_P2;Temp;Humidity;BMP_temperature;BMP_pressure;BME280_temperature;BME280_humidity;BME280_pressure;Samples;Min_cycle;Max_cycle;Signal;HPM_P1;HPM_P2
2023/02/13 00:00:15;;;;;;;127.65;34.33;;;;;;;7.10;100.00;103711.00;5013393;28;20112;-44
2023/02/13 00:02:40;;;;;;;138.57;35.00;;;;;;;7.11;100.00;103711.84;5019044;28;20028;-44
2023/02/13 00:05:06;;;;;;;127.78;35.40;;;;;;;7.10;100.00;103710.13;5029759;28;20389;-44
2023/02/13 00:07:31;;;;;;;125.20;34.40;;;;;;;7.05;100.00;103707.72;5028092;28;20127;-44
2023/02/13 00:09:57;;;;;;;132.30;35.33;;;;;;;7.09;100.00;103717.31;5029477;28;20081;-44
2023/02/13 00:12:22;;;;;;;132.90;36.42;;;;;;;6.97;100.00;103716.19;5010725;28;20065;-44
2023/02/13 00:14:47;;;;;;;131.45;36.92;;;;;;;6.95;100.00;103711.88;5017325;28;20125;-44
2023/02/13 00:17:13;;;;;;;128.15;34.67;;;;;;;7.02;100.00;103713.25;5028189;28;20306;-43
2023/02/13 00:19:38;;;;;;;126.78;34.88;;;;;;;6.96;100.00;103714.47;5034253;28;20029;-46
2023/02/13 00:22:04;;;;;;;136.32;36.60;;;;;;;6.89;100.00;103710.41;5036452;28;20501;-44
2023/02/13 00:24:29;;;;;;;142.13;37.17;;;;;;;6.96;100.00;103708.25;5033071;28;20040;-43
2023/02/13 00:26:55;;;;;;;126.75;35.70;;;;;;;7.03;100.00;103723.03;5026792;28;20041;-44
2023/02/13 00:29:20;;;;;;;128.75;36.85;;;;;;;6.95;100.00;103714.53;5030333;28;20025;-44
2023/02/13 00:31:45;;;;;;;122.25;34.33;;;;;;;7.00;100.00;103705.31;5022468;28;20057;-45
2023/02/13 00:34:11;;;;;;;128.63;33.80;;;;;;;6.95;100.00;103711.88;5029896;28;20026;-43
2023/02/13 00:36:36;;;;;;;135.15;36.03;;;;;;;6.91;100.00;103716.53;5031353;28;20018;-43
2023/02/13 00:39:01;;;;;;;123.95;35.75;;;;;;;6.90;100.00;103713.94;5032039;28;20503;-44
2023/02/13 00:41:27;;;;;;;131.25;36.10;;;;;;;6.87;100.00;103720.34;5024974;28;20461;-44
2023/02/13 00:43:53;;;;;;;129.77;36.78;;;;;;;6.83;100.00;103713.44;5013715;28;20057;-43
2023/02/13 00:46:18;;;;;;;120.78;35.90;;;;;;;6.91;100.00;103715.69;5026840;28;20026;-44
2023/02/13 00:48:44;;;;;;;127.90;34.88;;;;;;;6.94;100.00;103707.47;5030710;28;20021;-44
2023/02/13 00:51:09;;;;;;;123.30;35.17;;;;;;;6.98;100.00;103712.56;5018866;28;20029;-43
2023/02/13 00:53:35;;;;;;;119.93;34.33;;;;;;;7.04;100.00;103706.00;5032575;28;20079;-43
2023/02/13 00:56:01;;;;;;;121.43;35.92;;;;;;;7.04;100.00;103698.81;5021275;28;20041;-44
2023/02/13 00:58:27;;;;;;;121.65;34.10;;;;;;;7.04;100.00;103706.84;5025572;28;20029;-43
2023/02/13 01:00:53;;;;;;;119.85;33.58;;;;;;;7.07;100.00;103695.09;5018510;28;20041;-43
2023/02/13 01:03:20;;;;;;;118.05;33.60;;;;;;;7.07;100.00;103689.75;5030608;28;20159;-45
2023/02/13 01:05:46;;;;;;;120.50;34.03;;;;;;;7.04;100.00;103685.44;5032371;28;20100;-44
2023/02/13 01:08:12;;;;;;;111.15;32.55;;;;;;;7.02;100.00;103686.47;5024049;28;20542;-43
2023/02/13 01:10:39;;;;;;;115.15;35.63;;;;;;;7.00;100.00;103688.38;5014027;28;20025;-44
2023/02/13 01:13:04;;;;;;;121.47;34.25;;;;;;;7.00;100.00;103689.25;5027974;28;20041;-44
2023/02/13 01:15:31;;;;;;;117.38;33.75;;;;;;;6.94;100.00;103688.72;5032206;28;20032;-43
2023/02/13 01:17:56;;;;;;;114.95;34.50;;;;;;;6.92;100.00;103685.28;5030737;28;20038;-43
2023/02/13 01:20:23;;;;;;;123.03;33.72;;;;;;;6.93;100.00;103692.38;5023206;28;20037;-43
2023/02/13 01:22:49;;;;;;;120.50;35.05;;;;;;;6.92;100.00;103694.16;5012939;28;20080;-44
2023/02/13 01:25:14;;;;;;;116.03;34.83;;;;;;;6.92;100.00;103691.47;5023194;28;20071;-43
2023/02/13 01:27:39;;;;;;;105.57;32.50;;;;;;;6.91;100.00;103694.28;5029659;28;20489;-43
2023/02/13 01:30:10;;;;;;;121.78;35.50;;;;;;;6.96;100.00;103676.97;5019252;28;20029;-43
2023/02/13 01:32:36;;;;;;;120.32;33.60;;;;;;;6.94;100.00;103672.66;5024818;28;20126;-44
2023/02/13 01:35:02;;;;;;;115.60;34.20;;;;;;;6.93;100.00;103679.00;5024696;28;20571;-42
2023/02/13 01:37:27;;;;;;;115.25;33.97;;;;;;;6.95;100.00;103674.38;5012239;28;20053;-44
2023/02/13 01:39:53;;;;;;;111.20;32.65;;;;;;;6.89;100.00;103674.75;5013177;28;20074;-43
2023/02/13 01:42:25;;;;;;;119.55;35.47;;;;;;;6.95;100.00;103690.44;5016950;28;20029;-44
2023/02/13 01:44:56;;;;;;;116.65;33.03;;;;;;;6.98;100.00;103684.94;5027036;28;20060;-47
2023/02/13 01:47:44;;;;;;;117.13;35.30;;;;;;;6.96;100.00;103682.34;5029993;28;20492;-44
2023/02/13 01:50:11;;;;;;;113.55;35.75;;;;;;;6.91;100.00;103687.09;5023262;28;20079;-47
2023/02/13 01:52:40;;;;;;;120.15;36.15;;;;;;;6.84;100.00;103679.50;5015444;28;20021;-45
2023/02/13 01:55:06;;;;;;;112.75;34.03;;;;;;;6.84;100.00;103688.38;5014626;28;20505;-45
2023/02/13 01:57:31;;;;;;;115.53;34.92;;;;;;;6.91;100.00;103683.56;5022468;28;20045;-42
2023/02/13 02:00:04;;;;;;;120.85;36.75;;;;;;;6.95;100.00;103685.09;5016130;28;20044;-48
2023/02/13 02:02:33;;;;;;;115.63;34.30;;;;;;;6.97;100.00;103684.06;5028669;28;20021;-44
2023/02/13 02:05:00;;;;;;;126.03;37.35;;;;;;;6.89;100.00;103683.63;5019862;28;20482;-44
2023/02/13 02:07:28;;;;;;;123.05;36.88;;;;;;;6.84;100.00;103683.03;5030980;28;20037;-44
2023/02/13 02:09:58;;;;;;;106.68;33.30;;;;;;;6.90;100.00;103681.81;5025862;28;20021;-45
2023/02/13 02:12:38;;;;;;;111.47;35.05;;;;;;;6.87;100.00;103682.00;5009459;28;20469;-44
2023/02/13 02:15:05;;;;;;;110.63;34.58;;;;;;;6.82;100.00;103680.47;5025385;28;20398;-44
2023/02/13 02:17:30;;;;;;;114.35;34.42;;;;;;;6.85;100.00;103681.25;5012635;28;20045;-43
2023/02/13 02:20:19;;;;;;;121.43;36.58;;;;;;;6.88;100.00;103671.22;5042872;28;20132;-46
2023/02/13 02:23:06;;;;;;;111.75;35.70;;;;;;;6.88;100.00;103673.03;5029174;28;20500;-43
2023/02/13 02:26:08;;;;;;;124.05;37.10;;;;;;;6.86;100.00;103677.59;5024376;28;20030;-45
2023/02/13 02:28:36;;;;;;;115.00;34.65;;;;;;;6.90;100.00;103688.06;5016631;28;20021;-45
2023/02/13 02:31:16;;;;;;;131.73;36.90;;;;;;;6.92;100.00;103675.41;5018304;28;20076;-44
2023/02/13 02:33:48;;;;;;;125.07;36.38;;;;;;;6.87;100.00;103674.81;5039593;28;20117;-43
2023/02/13 02:36:36;;;;;;;125.57;36.55;;;;;;;6.79;100.00;103675.28;5012870;28;20109;-45
2023/02/13 02:39:19;;;;;;;111.30;34.60;;;;;;;6.78;100.00;103672.69;5013644;28;20408;-44
2023/02/13 02:41:58;;;;;;;113.78;35.50;;;;;;;6.80;100.00;103674.31;5012220;28;20030;-44
2023/02/13 02:44:50;;;;;;;118.68;36.13;;;;;;;6.84;100.00;103669.66;5021748;28;20029;-44
2023/02/13 02:50:08;;;;;;;116.75;35.15;;;;;;;6.78;100.00;103668.19;5015819;28;20505;-44
2023/02/13 02:52:42;;;;;;;108.32;35.00;;;;;;;6.81;100.00;103662.66;5028612;28;20030;-44
2023/02/13 02:55:32;;;;;;;117.72;36.28;;;;;;;6.87;100.00;103652.53;5017619;28;20314;-43
2023/02/13 03:06:50;;;;;;;119.63;36.90;;;;;;;6.77;100.00;103658.44;5029804;28;20067;-45
2023/02/13 03:15:03;;;;;;;109.47;35.50;;;;;;;6.79;100.00;103659.22;5013155;28;20045;-42
2023/02/13 03:23:02;;;;;;;;;;;;;;;6.64;100.00;103652.06;5022336;28;20412;-43
2023/02/13 03:25:52;;;;;;;106.32;33.20;;;;;;;6.68;100.00;103650.06;5029399;28;19913;-42
2023/02/13 03:31:37;;;;;;;113.47;36.40;;;;;;;6.68;100.00;103642.91;5024819;28;20056;-43
2023/02/13 03:34:13;;;;;;;104.93;33.17;;;;;;;6.71;100.00;103645.41;5026436;28;20099;-44
2023/02/13 03:40:08;;;;;;;109.13;32.97;;;;;;;6.66;100.00;103633.22;5023725;28;20117;-42
2023/02/13 03:42:47;;;;;;;107.68;35.53;;;;;;;6.66;100.00;103649.28;5009683;28;20382;-43
2023/02/13 03:50:04;;;;;;;114.55;36.97;;;;;;;6.64;100.00;103640.50;5029478;28;20048;-44
2023/02/13 03:50:53;;;;;;;117.60;36.83;;;;;;;6.67;100.00;103637.66;5019793;28;20065;-44
2023/02/13 03:53:18;;;;;;;115.15;34.70;;;;;;;6.65;100.00;103635.06;5014296;28;20017;-44
2023/02/13 04:01:21;;;;;;;100.78;32.78;;;;;;;6.63;100.00;103628.91;5034489;28;20091;-44
2023/02/13 04:04:07;;;;;;;109.32;35.60;;;;;;;6.60;100.00;103631.78;5032584;28;20087;-45
2023/02/13 04:06:46;;;;;;;104.13;34.85;;;;;;;6.59;100.00;103633.59;5032947;28;20033;-44
2023/02/13 04:09:11;;;;;;;110.57;34.80;;;;;;;6.65;100.00;103636.88;5034154;28;20033;-44
2023/02/13 04:11:47;;;;;;;107.82;35.88;;;;;;;6.65;100.00;103640.41;5033770;28;20025;-43
2023/02/13 04:14:29;;;;;;;113.43;36.40;;;;;;;6.61;100.00;103628.16;5033378;28;20037;-46
2023/02/13 04:17:03;;;;;;;106.75;34.15;;;;;;;6.60;100.00;103635.31;5032537;28;20079;-45
2023/02/13 04:19:30;;;;;;;104.57;35.00;;;;;;;6.62;100.00;103627.19;5032613;28;20060;-45
2023/02/13 04:21:58;;;;;;;97.63;33.67;;;;;;;6.58;100.00;103639.00;5032129;28;20384;-44
2023/02/13 04:24:24;;;;;;;112.47;35.38;;;;;;;6.56;100.00;103635.59;5034044;28;20041;-43
2023/02/13 04:26:50;;;;;;;107.15;35.83;;;;;;;6.59;100.00;103635.41;5036896;28;20540;-44
2023/02/13 04:29:15;;;;;;;106.63;34.92;;;;;;;6.55;100.00;103634.69;5026512;28;20117;-43
2023/02/13 04:31:40;;;;;;;107.82;35.65;;;;;;;6.57;100.00;103639.97;5025821;28;20033;-46
2023/02/13 04:34:06;;;;;;;103.80;34.67;;;;;;;6.57;100.00;103640.84;5032033;28;20116;-43
2023/02/13 04:36:31;;;;;;;109.63;34.70;;;;;;;6.55;100.00;103637.38;5032763;28;20079;-43
2023/02/13 04:38:57;;;;;;;109.32;35.33;;;;;;;6.48;100.00;103643.19;5031948;28;20469;-44
2023/02/13 04:41:22;;;;;;;110.22;33.60;;;;;;;6.53;100.00;103649.13;5021633;28;20175;-43
2023/02/13 04:43:47;;;;;;;102.35;32.72;;;;;;;6.60;100.00;103642.47;5020435;28;20033;-44
2023/02/13 04:46:13;;;;;;;101.25;33.80;;;;;;;6.61;100.00;103641.53;5014766;28;20068;-44
2023/02/13 04:48:38;;;;;;;109.93;35.00;;;;;;;6.58;100.00;103636.34;5031227;28;20071;-43
2023/02/13 04:51:04;;;;;;;106.75;34.08;;;;;;;6.60;100.00;103634.44;5027642;28;20496;-42
2023/02/13 04:53:29;;;;;;;106.95;34.47;;;;;;;6.57;100.00;103627.47;5026149;28;20504;-47
2023/02/13 04:55:54;;;;;;;108.55;33.40;;;;;;;6.61;100.00;103628.16;5012869;28;20100;-43
2023/02/13 04:58:20;;;;;;;107.15;33.90;;;;;;;6.63;100.00;103620.88;5019531;28;20445;-46
2023/02/13 05:00:45;;;;;;;111.50;34.03;;;;;;;6.65;100.00;103632.38;5024147;28;20401;-44
2023/02/13 05:03:12;;;;;;;112.80;35.17;;;;;;;6.54;100.00;103621.44;5023123;28;20045;-43
2023/02/13 05:05:39;;;;;;;104.30;34.25;;;;;;;6.45;100.00;103622.81;5010667;28;20450;-43
2023/02/13 05:08:05;;;;;;;101.28;34.88;;;;;;;6.38;100.00;103619.63;5013031;28;20029;-42
2023/02/13 05:10:31;;;;;;;103.65;34.67;;;;;;;6.42;100.00;103627.47;5027672;28;20072;-44
2023/02/13 05:12:56;;;;;;;108.35;35.63;;;;;;;6.43;100.00;103624.72;5009913;28;20053;-43
2023/02/13 05:15:22;;;;;;;100.13;33.47;;;;;;;6.50;100.00;103625.22;5028534;28;20529;-43
2023/02/13 05:17:48;;;;;;;97.43;33.63;;;;;;;6.58;100.00;103633.66;5015100;28;20432;-44
2023/02/13 05:20:13;;;;;;;108.55;34.45;;;;;;;6.62;100.00;103629.88;5018123;28;20126;-43
2023/02/13 05:25:31;;;;;;;103.15;34.33;;;;;;;6.48;100.00;103628.00;5021673;28;20091;-44
2023/02/13 05:27:56;;;;;;;104.57;34.55;;;;;;;6.55;100.00;103624.00;5032564;28;20021;-45
2023/02/13 05:30:22;;;;;;;105.15;34.33;;;;;;;6.62;100.00;103619.16;5031173;28;20025;-44
2023/02/13 05:32:50;;;;;;;101.68;33.25;;;;;;;6.64;100.00;103616.44;5031824;28;20056;-46
2023/02/13 05:35:16;;;;;;;108.88;35.00;;;;;;;6.61;100.00;103614.78;5031461;28;20064;-44
2023/02/13 05:37:41;;;;;;;104.93;33.53;;;;;;;6.66;100.00;103620.75;5022829;28;20428;-43
2023/02/13 05:40:08;;;;;;;100.20;32.42;;;;;;;6.66;100.00;103620.75;5012210;28;20030;-42
2023/02/13 05:42:33;;;;;;;104.95;31.90;;;;;;;6.57;100.00;103623.91;5012469;28;20401;-44
2023/02/13 05:44:59;;;;;;;105.88;33.35;;;;;;;6.56;100.00;103620.38;5029072;28;20041;-45
2023/02/13 05:47:24;;;;;;;94.25;31.05;;;;;;;6.65;100.00;103616.31;5031620;28;20499;-45
2023/02/13 05:49:49;;;;;;;98.35;32.05;;;;;;;6.69;100.00;103612.53;5031727;28;20045;-42
2023/02/13 05:52:15;;;;;;;96.68;33.25;;;;;;;6.78;100.00;103617.34;5014318;28;20113;-44
2023/02/13 05:54:40;;;;;;;97.85;33.03;;;;;;;6.77;100.00;103615.63;5027939;28;20061;-45
2023/02/13 05:57:05;;;;;;;93.85;32.90;;;;;;;6.74;100.00;103612.22;5012659;28;20026;-44
2023/02/13 05:59:31;;;;;;;105.07;34.30;;;;;;;6.63;100.00;103615.53;5021999;28;20032;-42
2023/02/13 06:01:56;;;;;;;99.80;33.38;;;;;;;6.63;100.00;103620.88;5012473;28;20030;-46
2023/02/13 06:04:22;;;;;;;96.82;32.28;;;;;;;6.68;100.00;103613.47;5027420;28;20113;-44
2023/02/13 06:06:47;;;;;;;93.53;31.83;;;;;;;6.73;100.00;103616.72;5030637;28;20029;-43
2023/02/13 06:09:12;;;;;;;95.50;33.33;;;;;;;6.77;100.00;103612.94;5032758;28;20025;-43
2023/02/13 06:11:37;;;;;;;101.38;30.35;;;;;;;6.79;100.00;103615.50;5028961;28;20051;-43
2023/02/13 06:14:03;;;;;;;96.28;31.02;;;;;;;6.75;100.00;103604.13;5018010;28;20034;-44
2023/02/13 06:16:30;;;;;;;94.10;31.83;;;;;;;6.72;100.00;103608.81;5029887;28;20053;-44
2023/02/13 06:18:55;;;;;;;99.55;30.83;;;;;;;6.65;100.00;103608.28;5024884;28;20096;-43
2023/02/13 06:21:21;;;;;;;89.65;30.38;;;;;;;6.68;100.00;103607.25;5031260;28;20037;-44
2023/02/13 06:23:46;;;;;;;102.15;32.72;;;;;;;6.67;100.00;103603.72;5025905;28;20061;-44
2023/02/13 06:26:11;;;;;;;94.72;31.15;;;;;;;6.62;100.00;103615.63;5011786;28;20044;-46
2023/02/13 06:28:37;;;;;;;106.28;32.92;;;;;;;6.52;100.00;103607.28;5018645;28;20029;-45
2023/02/13 06:31:03;;;;;;;88.45;31.10;;;;;;;6.61;100.00;103612.09;5016277;28;20068;-44
2023/02/13 06:33:28;;;;;;;96.82;31.77;;;;;;;6.63;100.00;103617.34;5020059;28;20133;-44
2023/02/13 06:35:53;;;;;;;93.05;30.30;;;;;;;6.66;100.00;103614.50;5019133;28;20439;-45
2023/02/13 06:38:20;;;;;;;101.13;32.03;;;;;;;6.62;100.00;103621.00;5028902;28;20029;-43
2023/02/13 06:40:46;;;;;;;88.70;30.05;;;;;;;6.69;100.00;103615.19;5029696;28;20067;-46
2023/02/13 06:43:12;;;;;;;103.03;32.40;;;;;;;6.74;100.00;103617.59;5013055;28;20028;-45
2023/02/13 06:45:37;;;;;;;92.63;29.63;;;;;;;6.68;100.00;103615.28;5029058;28;20420;-46
2023/02/13 06:48:03;;;;;;;90.13;30.10;;;;;;;6.74;100.00;103620.25;5025565;28;20370;-44
2023/02/13 06:50:28;;;;;;;93.25;31.08;;;;;;;6.72;100.00;103619.50;5030321;28;20040;-45
2023/02/13 06:52:53;;;;;;;91.40;29.65;;;;;;;6.71;100.00;103623.97;5027144;28;20869;-44
2023/02/13 06:55:19;;;;;;;93.13;29.90;;;;;;;6.65;100.00;103623.50;5014599;28;20055;-44
2023/02/13 06:57:45;;;;;;;92.68;30.67;;;;;;;6.67;100.00;103633.16;5018207;28;20523;-43
2023/02/13 07:00:12;;;;;;;98.07;29.83;;;;;;;6.62;100.00;103635.22;5029989;28;20473;-44
2023/02/13 07:02:39;;;;;;;98.70;32.20;;;;;;;6.65;100.00;103639.53;5025784;28;20040;-43
2023/02/13 07:05:05;;;;;;;93.32;31.25;;;;;;;6.69;100.00;103646.44;5025814;28;20045;-44
2023/02/13 07:07:34;;;;;;;93.93;29.95;;;;;;;6.70;100.00;103651.72;5030273;28;20075;-45
2023/02/13 07:10:00;;;;;;;95.40;30.58;;;;;;;6.68;100.00;103655.41;5029333;28;20037;-44
2023/02/13 07:12:25;;;;;;;92.55;30.70;;;;;;;6.69;100.00;103652.66;5027064;28;20092;-43
2023/02/13 07:14:50;;;;;;;99.93;30.80;;;;;;;6.68;100.00;103655.41;5027349;28;20032;-44
2023/02/13 07:17:16;;;;;;;95.20;31.42;;;;;;;6.68;100.00;103655.41;5022185;28;20045;-44
2023/02/13 07:19:41;;;;;;;96.43;31.58;;;;;;;6.68;100.00;103650.94;5017118;28;20060;-43
2023/02/13 07:22:06;;;;;;;83.78;28.38;;;;;;;6.72;100.00;103660.53;5028368;28;20048;-47
2023/02/13 07:24:34;;;;;;;98.88;35.22;;;;;;;6.76;100.00;103663.88;5028757;28;20342;-45
2023/02/13 07:27:00;;;;;;;87.13;29.42;;;;;;;6.74;100.00;103666.66;5034076;28;20520;-43
2023/02/13 07:29:25;;;;;;;101.78;31.90;;;;;;;6.74;100.00;103666.66;5023408;28;20059;-43
2023/02/13 07:31:50;;;;;;;91.28;31.52;;;;;;;6.76;100.00;103659.38;5027965;28;20117;-45
2023/02/13 07:34:16;;;;;;;95.43;31.40;;;;;;;6.77;100.00;103666.47;5014913;28;20550;-44
2023/02/13 07:36:41;;;;;;;87.60;29.85;;;;;;;6.79;100.00;103653.88;5010666;28;20064;-45
2023/02/13 07:39:06;;;;;;;91.63;30.88;;;;;;;6.82;100.00;103661.72;5023742;28;20752;-43
2023/02/13 07:41:32;;;;;;;98.85;31.92;;;;;;;6.91;100.00;103651.44;5027666;28;20060;-44
2023/02/13 07:43:57;;;;;;;89.82;30.23;;;;;;;6.95;100.00;103661.88;5025460;28;20064;-45
2023/02/13 07:46:22;;;;;;;93.88;33.08;;;;;;;7.02;100.00;103649.84;5029771;28;20060;-46
2023/02/13 07:48:48;;;;;;;96.10;32.45;;;;;;;7.07;100.00;103651.41;5030812;28;20045;-45
2023/02/13 07:51:13;;;;;;;93.78;33.65;;;;;;;7.12;100.00;103650.16;5028539;28;20067;-46
2023/02/13 07:53:38;;;;;;;102.15;35.50;;;;;;;7.16;100.00;103646.38;5027498;28;20511;-45
2023/02/13 07:56:08;;;;;;;98.63;36.75;;;;;;;7.10;100.00;103649.41;5026316;28;20030;-45
2023/02/13 07:58:34;;;;;;;89.18;30.33;;;;;;;7.19;100.00;103646.19;5027361;28;20112;-43
2023/02/13 08:01:05;;;;;;;90.78;30.63;;;;;;;7.20;100.00;103647.91;5025509;28;20034;-44
2023/02/13 08:03:31;;;;;;;91.38;31.23;;;;;;;7.16;100.00;103658.88;5027512;28;20036;-47
2023/02/13 08:05:56;;;;;;;86.97;29.25;;;;;;;7.18;100.00;103655.16;5026484;28;20361;-44
2023/02/13 08:08:21;;;;;;;89.95;30.95;;;;;;;7.20;100.00;103653.25;5028844;28;20048;-46
2023/02/13 08:13:31;;;;;;;87.90;30.17;;;;;;;7.21;100.00;103655.00;5024563;28;20455;-44
2023/02/13 08:15:56;;;;;;;91.05;29.65;;;;;;;7.28;100.00;103657.31;5028377;28;20104;-47
2023/02/13 08:18:21;;;;;;;92.07;29.88;;;;;;;7.36;100.00;103657.72;5026807;28;20030;-44
2023/02/13 08:20:47;;;;;;;104.18;31.95;;;;;;;7.50;100.00;103655.03;5025731;28;20151;-44
2023/02/13 08:23:12;;;;;;;99.10;32.40;;;;;;;7.48;100.00;103651.63;5023177;28;20037;-45
2023/02/13 08:25:38;;;;;;;90.47;29.77;;;;;;;7.57;100.00;103656.41;5024036;28;20417;-44
2023/02/13 08:28:04;;;;;;;88.85;31.27;;;;;;;7.61;100.00;103649.03;5025545;28;20033;-43
2023/02/13 08:30:29;;;;;;;86.22;28.95;;;;;;;7.61;100.00;103660.63;5025479;28;20037;-44
2023/02/13 08:32:55;;;;;;;97.05;32.13;;;;;;;7.63;100.00;103656.03;5027424;28;20203;-46
2023/02/13 08:35:21;;;;;;;97.63;30.75;;;;;;;7.59;100.00;103659.88;5026651;28;20025;-44
2023/02/13 08:37:47;;;;;;;88.35;29.35;;;;;;;7.63;100.00;103658.72;5025579;28;20041;-43
2023/02/13 08:40:12;;;;;;;83.63;29.30;;;;;;;7.69;100.00;103653.00;5027804;28;20086;-43
2023/02/13 08:42:38;;;;;;;93.38;31.13;;;;;;;7.76;100.00;103649.91;5027780;28;20049;-44
2023/02/13 08:45:04;;;;;;;90.32;31.38;;;;;;;7.71;100.00;103663.59;5027595;28;20021;-44
2023/02/13 08:47:29;;;;;;;92.78;32.10;;;;;;;7.74;100.00;103667.91;5024983;28;20480;-44
2023/02/13 08:49:55;;;;;;;82.10;29.70;;;;;;;7.78;100.00;103674.81;5023647;28;20079;-45
2023/02/13 08:52:20;;;;;;;83.53;30.33;;;;;;;7.70;100.00;103670.78;5027831;28;20465;-44
2023/02/13 08:54:45;;;;;;;88.00;31.63;;;;;;;7.72;100.00;103668.03;5026940;28;20378;-45
2023/02/13 08:57:11;;;;;;;89.80;32.47;;;;;;;7.80;100.00;103664.88;5026527;28;20034;-43
2023/02/13 08:59:36;;;;;;;91.95;31.98;;;;;;;7.72;100.00;103664.50;5028478;28;20048;-44
2023/02/13 09:02:01;;;;;;;87.93;32.35;;;;;;;7.68;100.00;103670.00;5027459;28;20033;-43
2023/02/13 09:04:27;;;;;;;93.38;32.58;;;;;;;7.87;100.00;103668.88;5026230;28;20481;-44
2023/02/13 09:06:52;;;;;;;87.07;30.85;;;;;;;7.93;100.00;103673.88;5028138;28;20095;-44
2023/02/13 09:09:18;;;;;;;91.93;33.15;;;;;;;7.83;100.00;103667.38;5028363;28;20060;-43
2023/02/13 09:11:43;;;;;;;90.63;31.38;;;;;;;7.85;100.00;103669.00;5023553;28;20578;-44
2023/02/13 09:14:08;;;;;;;92.07;32.15;;;;;;;7.90;100.00;103666.91;5025990;28;20041;-43
2023/02/13 09:16:34;;;;;;;92.57;33.28;;;;;;;7.92;100.00;103661.41;5022257;28;20038;-44
2023/02/13 09:18:59;;;;;;;95.45;33.97;;;;;;;7.96;100.00;103656.75;5023839;28;20045;-43
2023/02/13 09:21:24;;;;;;;99.50;36.78;;;;;;;7.88;100.00;103670.63;5025828;28;20033;-45
2023/02/13 09:23:50;;;;;;;96.75;35.95;;;;;;;7.76;100.00;103660.66;5026902;28;20133;-43
2023/02/13 09:26:16;;;;;;;99.80;35.42;;;;;;;7.82;100.00;103671.88;5026982;28;20041;-44
2023/02/13 09:28:42;;;;;;;102.32;36.40;;;;;;;7.86;100.00;103664.50;5022328;28;20072;-43
2023/02/13 09:31:10;;;;;;;105.18;36.25;;;;;;;7.96;100.00;103672.84;5025064;28;20049;-42
2023/02/13 09:33:35;;;;;;;100.20;35.97;;;;;;;8.21;100.00;103662.25;5026188;28;20053;-44
2023/02/13 09:36:09;;;;;;;103.07;36.15;;;;;;;8.28;100.00;103663.59;5025004;28;20087;-44
2023/02/13 09:38:34;;;;;;;103.75;36.70;;;;;;;8.47;100.00;103671.38;5023298;28;20044;-43
2023/02/13 09:41:03;;;;;;;111.50;37.85;;;;;;;8.36;100.00;103660.44;5024295;28;20112;-44
2023/02/13 09:43:55;;;;;;;100.75;35.63;;;;;;;8.62;100.00;103666.00;5024055;28;20082;-43
2023/02/13 09:46:34;;;;;;;105.20;37.67;;;;;;;8.53;100.00;103652.22;5021410;28;20059;-45
2023/02/13 09:49:04;;;;;;;110.65;39.47;;;;;;;8.81;100.00;103654.91;5025125;28;20435;-44
2023/02/13 09:51:29;;;;;;;93.57;33.75;;;;;;;9.55;100.00;103656.16;5025212;28;20407;-44
2023/02/13 09:54:01;;;;;;;90.43;35.20;;;;;;;9.86;100.00;103644.09;5022778;28;20025;-46
2023/02/13 09:56:40;;;;;;;100.28;36.50;;;;;;;10.29;100.00;103644.63;5025916;28;20025;-46
2023/02/13 09:59:31;;;;;;;87.60;34.92;;;;;;;10.73;100.00;103642.31;5023574;28;20128;-42
2023/02/13 10:02:00;;;;;;;86.80;34.90;;;;;;;11.21;100.00;103637.72;5020247;28;20052;-45
2023/02/13 10:04:47;;;;;;;89.95;36.05;;;;;;;11.28;100.00;103629.19;5023264;28;20052;-44
2023/02/13 10:07:33;;;;;;;100.90;38.17;;;;;;;11.30;100.00;103632.63;5025528;28;20386;-44
2023/02/13 10:10:21;;;;;;;98.82;35.92;;;;;;;11.38;100.00;103638.28;5022686;28;20036;-44
2023/02/13 10:13:08;;;;;;;92.38;34.58;;;;;;;11.66;100.00;103631.56;5018016;28;20131;-44
2023/02/13 10:15:36;;;;;;;93.75;36.95;;;;;;;12.35;100.00;103631.50;5022857;28;20066;-45
2023/02/13 10:18:04;;;;;;;88.68;35.28;;;;;;;13.01;100.00;103633.25;5022732;28;20026;-45
2023/02/13 10:20:41;;;;;;;;;;;;;;;12.82;100.00;103629.41;5022463;28;20060;-45
2023/02/13 10:23:29;;;;;;;100.28;35.97;;;;;;;12.89;100.00;103630.59;5023598;28;19999;-42
2023/02/13 10:25:57;;;;;;;98.32;36.55;;;;;;;12.82;100.00;103624.00;5005679;28;20032;-46
2023/02/13 10:28:46;;;;;;;96.35;39.10;;;;;;;12.50;100.00;103614.00;5025510;28;20117;-46
2023/02/13 10:31:14;;;;;;;107.55;40.15;;;;;;;11.88;100.00;103611.91;5021605;28;20083;-44
2023/02/13 10:33:48;;;;;;;111.35;38.35;;;;;;;11.42;100.00;103615.47;5005684;28;20092;-44
2023/02/13 10:36:24;;;;;;;107.25;39.13;;;;;;;11.03;100.00;103616.72;5022511;28;20084;-46
2023/02/13 10:39:01;;;;;;;101.25;38.05;;;;;;;10.66;100.00;103625.72;5021915;28;20041;-45
2023/02/13 10:41:57;;;;;;;108.67;36.57;;;;;;;10.83;100.00;103629.03;5022204;28;20037;-45
2023/02/13 10:44:54;;;;;;;107.77;36.83;;;;;;;10.67;100.00;103622.09;5024209;28;20017;-44
2023/02/13 10:47:59;;;;;;;110.10;36.40;;;;;;;10.98;100.00;103617.94;5023121;28;20095;-44
2023/02/13 10:50:46;;;;;;;100.40;35.03;;;;;;;11.26;100.00;103617.66;5022549;28;20032;-44
2023/02/13 10:53:34;;;;;;;102.82;39.38;;;;;;;11.17;100.00;103606.59;5024468;28;20138;-45
2023/02/13 10:56:18;;;;;;;97.05;37.38;;;;;;;11.03;100.00;103606.78;5021527;28;20042;-43
2023/02/13 10:58:48;;;;;;;103.88;38.80;;;;;;;10.23;100.00;103609.19;5023402;28;20041;-44
2023/02/13 11:01:32;;;;;;;114.93;41.65;;;;;;;9.99;100.00;103611.81;5022285;28;20638;-43
2023/02/13 11:04:18;;;;;;;108.32;38.92;;;;;;;10.12;100.00;103618.03;5018497;28;20136;-46
2023/02/13 11:07:04;;;;;;;114.78;41.95;;;;;;;10.55;100.00;103617.59;5023672;28;20068;-43
2023/02/13 11:09:33;;;;;;;113.20;40.53;;;;;;;10.73;100.00;103610.84;5023240;28;20059;-43
2023/02/13 11:12:24;;;;;;;112.15;39.88;;;;;;;11.42;100.00;103613.63;5020509;28;20022;-45
2023/02/13 11:14:57;;;;;;;102.57;38.85;;;;;;;11.80;100.00;103598.13;5024519;28;20608;-45
2023/02/13 11:17:24;;;;;;;106.85;39.38;;;;;;;11.15;100.00;103597.78;5023275;28;20046;-45
2023/02/13 11:19:52;;;;;;;102.45;39.47;;;;;;;11.45;100.00;103592.81;5023828;28;20030;-47
2023/02/13 11:22:31;;;;;;;114.57;40.55;;;;;;;11.40;100.00;103585.06;5023799;28;20034;-44
2023/02/13 11:25:00;;;;;;;117.35;42.58;;;;;;;11.60;100.00;103581.66;5024927;28;20505;-45
2023/02/13 11:27:34;;;;;;;117.78;39.58;;;;;;;13.17;100.00;103571.47;5025462;28;20037;-45
2023/02/13 11:30:06;;;;;;;107.03;39.15;;;;;;;13.90;99.70;103571.41;5025130;28;20033;-45
2023/02/13 11:32:33;;;;;;;107.88;39.90;;;;;;;14.22;96.21;103568.53;5025042;28;20049;-45
2023/02/13 11:35:27;;;;;;;105.93;42.20;;;;;;;14.41;93.17;103570.41;5007025;28;20037;-46
2023/02/13 11:38:10;;;;;;;111.80;41.33;;;;;;;14.06;92.36;103560.94;5023436;28;20021;-46
2023/02/13 11:40:36;;;;;;;116.00;41.50;;;;;;;14.04;94.20;103557.50;5024334;28;20025;-45
2023/02/13 11:43:04;;;;;;;101.05;39.10;;;;;;;14.58;93.10;103561.59;5023466;28;20742;-45
2023/02/13 11:45:29;;;;;;;;;;;;;;;15.10;90.18;103554.00;5023456;28;20412;-46
2023/02/13 11:47:55;;;;;;;114.32;42.58;;;;;;;14.72;89.14;103554.94;5021925;28;19912;-44
2023/02/13 11:50:23;;;;;;;104.20;39.78;;;;;;;14.75;88.97;103554.63;5024956;28;20454;-44
2023/02/13 11:52:55;;;;;;;102.30;40.33;;;;;;;14.57;87.41;103551.78;5021814;28;20179;-46
2023/02/13 11:55:31;;;;;;;119.88;42.95;;;;;;;14.57;88.41;103546.34;5021310;28;20664;-44
2023/02/13 11:58:10;;;;;;;112.20;42.15;;;;;;;14.36;87.44;103543.75;5023689;28;20508;-44